createdAt,value
2018-02-22T00:00:34.828Z,1020.70
2018-02-22T00:01:34.806Z,1020.67
2018-02-22T00:02:34.794Z,1020.68
2018-02-22T00:03:34.783Z,1020.72
2018-02-22T00:04:34.761Z,1020.64
2018-02-22T00:05:34.725Z,1020.68
2018-02-22T00:06:35.430Z,1020.65
2018-02-22T00:07:34.687Z,1020.71
2018-02-22T00:08:34.668Z,1020.64
2018-02-22T00:09:34.659Z,1020.65
2018-02-22T00:10:34.618Z,1020.70
2018-02-22T00:11:35.464Z,1020.68
2018-02-22T00:12:34.608Z,1020.69
2018-02-22T00:13:35.462Z,1020.67
2018-02-22T00:14:34.543Z,1020.65
2018-02-22T00:15:34.536Z,1020.66
2018-02-22T00:16:34.492Z,1020.66
2018-02-22T00:17:34.477Z,1020.64
2018-02-22T00:18:34.455Z,1020.69
2018-02-22T00:19:34.438Z,1020.67
2018-02-22T00:20:34.433Z,1020.66
2018-02-22T00:21:34.393Z,1020.63
2018-02-22T00:22:34.376Z,1020.66
2018-02-22T00:23:34.355Z,1020.63
2018-02-22T00:24:34.331Z,1020.63
2018-02-22T00:25:34.313Z,1020.67
2018-02-22T00:26:34.305Z,1020.63
2018-02-22T00:27:34.271Z,1020.62
2018-02-22T00:28:34.251Z,1020.59
2018-02-22T00:29:34.229Z,1020.59
2018-02-22T00:30:34.208Z,1020.56
2018-02-22T00:31:34.189Z,1020.55
2018-02-22T00:32:34.180Z,1020.54
2018-02-22T00:33:34.148Z,1020.55
2018-02-22T00:34:34.131Z,1020.53
2018-02-22T00:35:34.107Z,1020.52
2018-02-22T00:36:34.078Z,1020.52
2018-02-22T00:37:34.070Z,1020.52
2018-02-22T00:38:34.061Z,1020.52
2018-02-22T00:39:34.020Z,1020.50
2018-02-22T00:40:33.999Z,1020.52
2018-02-22T00:41:33.979Z,1020.54
2018-02-22T00:42:33.968Z,1020.51
2018-02-22T00:43:33.938Z,1020.48
2018-02-22T00:44:33.916Z,1020.50
2018-02-22T00:45:33.895Z,1020.47
2018-02-22T00:46:33.878Z,1020.49
2018-02-22T00:47:33.871Z,1020.53
2018-02-22T00:48:33.832Z,1020.52
2018-02-22T00:49:33.809Z,1020.48
2018-02-22T00:50:33.791Z,1020.48
2018-02-22T00:51:33.771Z,1020.49
2018-02-22T00:52:33.750Z,1020.44
2018-02-22T00:53:33.743Z,1020.44
2018-02-22T00:54:33.721Z,1020.49
2018-02-22T00:55:34.498Z,1020.55
2018-02-22T00:56:33.666Z,1020.47
2018-02-22T00:57:33.643Z,1020.46
2018-02-22T00:58:33.628Z,1020.48
2018-02-22T00:59:33.609Z,1020.49
2018-02-22T01:00:33.596Z,1020.47
2018-02-22T01:01:33.561Z,1020.46
2018-02-22T01:02:33.543Z,1020.49
2018-02-22T01:03:33.522Z,1020.47
2018-02-22T01:04:33.501Z,1020.51
2018-02-22T01:05:33.475Z,1020.52
2018-02-22T01:06:33.476Z,1020.50
2018-02-22T01:07:33.437Z,1020.51
2018-02-22T01:08:33.415Z,1020.54
2018-02-22T01:09:33.394Z,1020.55
2018-02-22T01:10:33.374Z,1020.56
2018-02-22T01:11:33.348Z,1020.56
2018-02-22T01:12:33.345Z,1020.56
2018-02-22T01:13:33.314Z,1020.54
2018-02-22T01:14:33.291Z,1020.51
2018-02-22T01:15:33.268Z,1020.53
2018-02-22T01:16:33.249Z,1020.54
2018-02-22T01:17:34.931Z,1020.55
2018-02-22T01:18:33.208Z,1020.52
2018-02-22T01:19:33.186Z,1020.52
2018-02-22T01:20:33.164Z,1020.55
2018-02-22T01:21:33.959Z,1020.53
2018-02-22T01:22:33.121Z,1020.53
2018-02-22T01:23:33.120Z,1020.50
2018-02-22T01:24:33.107Z,1020.49
2018-02-22T01:25:33.060Z,1020.56
2018-02-22T01:26:33.039Z,1020.51
2018-02-22T01:27:33.035Z,1020.51
2018-02-22T01:28:33.014Z,1020.47
2018-02-22T01:29:32.975Z,1020.48
2018-02-22T01:30:32.958Z,1020.48
2018-02-22T01:31:32.938Z,1020.48
2018-02-22T01:32:32.912Z,1020.49
2018-02-22T01:33:32.906Z,1020.46
2018-02-22T01:34:32.872Z,1020.49
2018-02-22T01:35:32.856Z,1020.46
2018-02-22T01:36:32.831Z,1020.46
2018-02-22T01:37:32.811Z,1020.46
2018-02-22T01:38:32.800Z,1020.48
2018-02-22T01:39:32.762Z,1020.44
2018-02-22T01:40:32.762Z,1020.46
2018-02-22T01:41:32.720Z,1020.45
2018-02-22T01:42:32.702Z,1020.42
2018-02-22T01:43:32.696Z,1020.42
2018-02-22T01:44:32.660Z,1020.43
2018-02-22T01:45:32.650Z,1020.44
2018-02-22T01:46:32.621Z,1020.41
2018-02-22T01:47:32.630Z,1020.39
2018-02-22T01:48:32.579Z,1020.37
2018-02-22T01:49:32.609Z,1020.41
2018-02-22T01:50:32.538Z,1020.40
2018-02-22T01:51:32.521Z,1020.39
2018-02-22T01:52:32.497Z,1020.38
2018-02-22T01:53:32.487Z,1020.37
2018-02-22T01:54:32.456Z,1020.35
2018-02-22T01:55:32.431Z,1020.36
2018-02-22T01:56:32.409Z,1020.36
2018-02-22T01:57:32.403Z,1020.39
2018-02-22T01:58:32.369Z,1020.35
2018-02-22T01:59:32.350Z,1020.34
2018-02-22T02:00:32.325Z,1020.35
2018-02-22T02:01:32.966Z,1020.34
2018-02-22T02:02:32.283Z,1020.36
2018-02-22T02:03:32.280Z,1020.31
2018-02-22T02:04:32.242Z,1020.34
2018-02-22T02:05:32.223Z,1020.30
2018-02-22T02:06:32.204Z,1020.27
2018-02-22T02:07:32.180Z,1020.30
2018-02-22T02:08:32.175Z,1020.32
2018-02-22T02:09:32.137Z,1020.27
2018-02-22T02:10:32.130Z,1020.28
2018-02-22T02:11:33.934Z,1020.27
2018-02-22T02:12:32.084Z,1020.27
2018-02-22T02:13:32.055Z,1020.28
2018-02-22T02:14:32.051Z,1020.27
2018-02-22T02:15:32.011Z,1020.28
2018-02-22T02:16:31.989Z,1020.24
2018-02-22T02:17:31.970Z,1020.23
2018-02-22T02:18:31.947Z,1020.22
2018-02-22T02:19:31.926Z,1020.27
2018-02-22T02:20:31.924Z,1020.27
2018-02-22T02:21:31.880Z,1020.28
2018-02-22T02:22:31.869Z,1020.27
2018-02-22T02:23:31.843Z,1020.23
2018-02-22T02:24:31.846Z,1020.24
2018-02-22T02:25:31.816Z,1020.27
2018-02-22T02:26:31.779Z,1020.28
2018-02-22T02:27:31.757Z,1020.28
2018-02-22T02:28:31.732Z,1020.24
2018-02-22T02:29:32.434Z,1020.23
2018-02-22T02:30:31.690Z,1020.25
2018-02-22T02:31:31.690Z,1020.22
2018-02-22T02:32:31.654Z,1020.26
2018-02-22T02:33:31.629Z,1020.27
2018-02-22T02:34:31.619Z,1020.26
2018-02-22T02:35:31.587Z,1020.23
2018-02-22T02:36:31.584Z,1020.25
2018-02-22T02:37:31.548Z,1020.24
2018-02-22T02:38:31.524Z,1020.23
2018-02-22T02:39:31.511Z,1020.21
2018-02-22T02:40:31.484Z,1020.22
2018-02-22T02:41:31.458Z,1020.22
2018-02-22T02:42:31.458Z,1020.19
2018-02-22T02:43:31.415Z,1020.20
2018-02-22T02:44:32.434Z,1020.14
2018-02-22T02:45:31.380Z,1020.16
2018-02-22T02:46:31.352Z,1020.09
2018-02-22T02:47:31.337Z,1020.12
2018-02-22T02:48:31.330Z,1020.17
2018-02-22T02:49:31.288Z,1020.12
2018-02-22T02:50:33.434Z,1020.10
2018-02-22T02:51:31.249Z,1020.09
2018-02-22T02:52:31.228Z,1020.09
2018-02-22T02:53:31.204Z,1020.08
2018-02-22T02:54:31.202Z,1020.09
2018-02-22T02:55:31.166Z,1020.06
2018-02-22T02:56:31.144Z,1020.04
2018-02-22T02:57:31.123Z,1020.09
2018-02-22T02:58:31.120Z,1020.03
2018-02-22T02:59:31.080Z,1020.05
2018-02-22T03:00:31.060Z,1020.05
2018-02-22T03:01:31.047Z,1020.06
2018-02-22T03:02:31.016Z,1020.10
2018-02-22T03:03:30.996Z,1020.08
2018-02-22T03:04:30.991Z,1020.06
2018-02-22T03:05:30.950Z,1020.09
2018-02-22T03:06:30.933Z,1020.07
2018-02-22T03:07:30.911Z,1020.05
2018-02-22T03:08:30.888Z,1020.05
2018-02-22T03:09:30.867Z,1020.08
2018-02-22T03:10:31.936Z,1020.08
2018-02-22T03:11:30.826Z,1020.07
2018-02-22T03:12:30.803Z,1020.10
2018-02-22T03:13:30.780Z,1020.10
2018-02-22T03:14:32.435Z,1020.07
2018-02-22T03:15:30.753Z,1020.09
2018-02-22T03:16:30.719Z,1020.05
2018-02-22T03:17:30.698Z,1020.12
2018-02-22T03:18:30.677Z,1020.06
2018-02-22T03:19:30.676Z,1020.03
2018-02-22T03:20:30.632Z,1020.05
2018-02-22T03:21:30.657Z,1020.06
2018-02-22T03:22:30.632Z,1020.02
2018-02-22T03:23:30.572Z,1020.06
2018-02-22T03:24:30.562Z,1020.00
2018-02-22T03:25:30.529Z,1020.02
2018-02-22T03:26:30.518Z,1020.03
2018-02-22T03:27:30.487Z,1020.04
2018-02-22T03:28:30.465Z,1020.03
2018-02-22T03:29:30.441Z,1020.00
2018-02-22T03:30:30.422Z,1019.99
2018-02-22T03:31:30.421Z,1019.98
2018-02-22T03:32:30.381Z,1020.00
2018-02-22T03:33:30.358Z,1020.01
2018-02-22T03:34:30.335Z,1020.05
2018-02-22T03:35:30.972Z,1020.05
2018-02-22T03:36:30.296Z,1020.04
2018-02-22T03:37:30.293Z,1020.06
2018-02-22T03:38:30.246Z,1020.00
2018-02-22T03:39:30.236Z,1020.03
2018-02-22T03:40:30.209Z,1019.99
2018-02-22T03:41:30.188Z,1020.01
2018-02-22T03:42:30.180Z,1019.99
2018-02-22T03:43:30.140Z,1019.99
2018-02-22T03:44:30.122Z,1020.00
2018-02-22T03:45:30.106Z,1019.96
2018-02-22T03:46:30.079Z,1019.95
2018-02-22T03:47:30.063Z,1019.95
2018-02-22T03:48:30.073Z,1020.00
2018-02-22T03:49:30.020Z,1019.99
2018-02-22T03:50:29.995Z,1019.97
2018-02-22T03:51:29.982Z,1019.97
2018-02-22T03:52:29.956Z,1019.98
2018-02-22T03:53:29.930Z,1020.04
2018-02-22T03:54:30.058Z,1020.03
2018-02-22T03:55:29.909Z,1019.99
2018-02-22T03:56:29.867Z,1020.00
2018-02-22T03:57:29.846Z,1020.04
2018-02-22T03:58:29.825Z,1020.00
2018-02-22T03:59:29.803Z,1020.00
2018-02-22T04:00:29.796Z,1020.03
2018-02-22T04:01:29.764Z,1020.06
2018-02-22T04:02:29.741Z,1019.99
2018-02-22T04:03:29.720Z,1019.98
2018-02-22T04:04:29.714Z,1019.97
2018-02-22T04:05:29.697Z,1019.98
2018-02-22T04:06:29.656Z,1020.01
2018-02-22T04:07:29.632Z,1019.99
2018-02-22T04:08:29.614Z,1019.99
2018-02-22T04:09:29.586Z,1019.98
2018-02-22T04:10:29.570Z,1020.05
2018-02-22T04:11:29.565Z,1020.00
2018-02-22T04:12:29.527Z,1020.05
2018-02-22T04:13:29.504Z,1020.00
2018-02-22T04:14:29.481Z,1020.01
2018-02-22T04:15:29.461Z,1020.01
2018-02-22T04:16:29.453Z,1020.05
2018-02-22T04:17:29.421Z,1020.00
2018-02-22T04:18:30.437Z,1020.04
2018-02-22T04:19:29.378Z,1020.01
2018-02-22T04:20:29.358Z,1020.05
2018-02-22T04:21:29.352Z,1020.05
2018-02-22T04:22:29.316Z,1020.01
2018-02-22T04:23:29.302Z,1020.04
2018-02-22T04:24:29.269Z,1020.04
2018-02-22T04:25:29.247Z,1020.06
2018-02-22T04:26:29.239Z,1020.06
2018-02-22T04:27:29.202Z,1020.07
2018-02-22T04:28:29.184Z,1020.02
2018-02-22T04:29:29.936Z,1020.09
2018-02-22T04:30:29.145Z,1020.08
2018-02-22T04:31:29.136Z,1020.07
2018-02-22T04:32:29.155Z,1020.10
2018-02-22T04:33:29.090Z,1020.08
2018-02-22T04:34:29.075Z,1020.06
2018-02-22T04:35:29.034Z,1020.06
2018-02-22T04:36:29.013Z,1020.09
2018-02-22T04:37:29.011Z,1020.05
2018-02-22T04:38:28.968Z,1020.09
2018-02-22T04:39:29.485Z,1020.05
2018-02-22T04:40:29.517Z,1020.01
2018-02-22T04:41:28.902Z,1020.05
2018-02-22T04:42:28.885Z,1020.10
2018-02-22T04:43:28.879Z,1020.05
2018-02-22T04:44:28.841Z,1020.06
2018-02-22T04:45:28.816Z,1020.02
2018-02-22T04:46:28.799Z,1020.03
2018-02-22T04:47:28.782Z,1020.02
2018-02-22T04:48:28.770Z,1020.01
2018-02-22T04:49:28.735Z,1020.02
2018-02-22T04:50:28.758Z,1020.03
2018-02-22T04:51:28.693Z,1020.04
2018-02-22T04:52:28.669Z,1020.05
2018-02-22T04:53:28.666Z,1020.03
2018-02-22T04:54:28.632Z,1020.04
2018-02-22T04:55:28.607Z,1020.02
2018-02-22T04:56:28.583Z,1020.04
2018-02-22T04:57:28.562Z,1020.10
2018-02-22T04:58:28.551Z,1020.14
2018-02-22T04:59:30.438Z,1020.10
2018-02-22T05:00:28.495Z,1020.10
2018-02-22T05:01:28.479Z,1020.09
2018-02-22T05:02:28.455Z,1020.15
2018-02-22T05:03:28.450Z,1020.09
2018-02-22T05:04:28.526Z,1020.09
2018-02-22T05:05:28.391Z,1020.08
2018-02-22T05:06:28.369Z,1020.11
2018-02-22T05:07:28.348Z,1020.10
2018-02-22T05:08:28.340Z,1020.12
2018-02-22T05:09:28.304Z,1020.09
2018-02-22T05:10:28.299Z,1020.13
2018-02-22T05:11:28.263Z,1020.13
2018-02-22T05:12:28.240Z,1020.15
2018-02-22T05:13:28.222Z,1020.15
2018-02-22T05:14:28.200Z,1020.14
2018-02-22T05:15:28.186Z,1020.13
2018-02-22T05:16:28.151Z,1020.15
2018-02-22T05:17:28.150Z,1020.13
2018-02-22T05:18:28.116Z,1020.17
2018-02-22T05:19:28.090Z,1020.15
2018-02-22T05:20:28.938Z,1020.16
2018-02-22T05:21:28.049Z,1020.19
2018-02-22T05:22:28.942Z,1020.21
2018-02-22T05:23:28.041Z,1020.20
2018-02-22T05:24:28.962Z,1020.18
2018-02-22T05:25:27.962Z,1020.25
2018-02-22T05:26:27.943Z,1020.25
2018-02-22T05:27:27.932Z,1020.24
2018-02-22T05:28:27.915Z,1020.23
2018-02-22T05:29:27.877Z,1020.22
2018-02-22T05:30:27.856Z,1020.23
2018-02-22T05:31:27.833Z,1020.20
2018-02-22T05:32:27.812Z,1020.22
2018-02-22T05:33:27.806Z,1020.24
2018-02-22T05:34:27.766Z,1020.23
2018-02-22T05:35:27.754Z,1020.21
2018-02-22T05:36:27.727Z,1020.24
2018-02-22T05:37:27.706Z,1020.26
2018-02-22T05:38:27.700Z,1020.25
2018-02-22T05:39:27.666Z,1020.28
2018-02-22T05:40:27.640Z,1020.25
2018-02-22T05:41:27.620Z,1020.26
2018-02-22T05:42:28.463Z,1020.31
2018-02-22T05:43:27.590Z,1020.26
2018-02-22T05:44:27.555Z,1020.28
2018-02-22T05:45:27.535Z,1020.28
2018-02-22T05:46:27.514Z,1020.27
2018-02-22T05:47:27.497Z,1020.26
2018-02-22T05:48:27.484Z,1020.28
2018-02-22T05:49:27.452Z,1020.29
2018-02-22T05:50:27.427Z,1020.29
2018-02-22T05:51:27.408Z,1020.29
2018-02-22T05:52:27.379Z,1020.31
2018-02-22T05:53:27.360Z,1020.31
2018-02-22T05:54:27.361Z,1020.32
2018-02-22T05:55:27.322Z,1020.34
2018-02-22T05:56:27.299Z,1020.34
2018-02-22T05:57:27.278Z,1020.36
2018-02-22T05:58:27.256Z,1020.38
2018-02-22T05:59:28.939Z,1020.38
2018-02-22T06:00:27.212Z,1020.38
2018-02-22T06:01:27.240Z,1020.37
2018-02-22T06:02:27.180Z,1020.43
2018-02-22T06:03:27.157Z,1020.43
2018-02-22T06:04:27.145Z,1020.41
2018-02-22T06:05:27.158Z,1020.39
2018-02-22T06:06:27.122Z,1020.39
2018-02-22T06:07:27.939Z,1020.39
2018-02-22T06:08:27.050Z,1020.39
2018-02-22T06:09:27.024Z,1020.41
2018-02-22T06:10:48.022Z,1020.44
2018-02-22T06:11:27.003Z,1020.42
2018-02-22T06:12:27.003Z,1020.41
2018-02-22T06:13:26.936Z,1020.45
2018-02-22T06:14:26.923Z,1020.46
2018-02-22T06:15:26.901Z,1020.47
2018-02-22T06:16:26.887Z,1020.48
2018-02-22T06:17:27.940Z,1020.48
2018-02-22T06:18:26.823Z,1020.49
2018-02-22T06:19:26.803Z,1020.51
2018-02-22T06:20:26.782Z,1020.51
2018-02-22T06:21:26.773Z,1020.49
2018-02-22T06:22:26.737Z,1020.51
2018-02-22T06:23:26.715Z,1020.47
2018-02-22T06:24:26.691Z,1020.48
2018-02-22T06:25:26.673Z,1020.46
2018-02-22T06:26:26.650Z,1020.49
2018-02-22T06:27:26.653Z,1020.51
2018-02-22T06:28:26.630Z,1020.49
2018-02-22T06:29:26.585Z,1020.47
2018-02-22T06:30:26.568Z,1020.49
2018-02-22T06:31:26.543Z,1020.51
2018-02-22T06:32:26.520Z,1020.48
2018-02-22T06:33:26.516Z,1020.49
2018-02-22T06:34:26.487Z,1020.49
2018-02-22T06:35:26.467Z,1020.53
2018-02-22T06:36:26.438Z,1020.52
2018-02-22T06:37:26.409Z,1020.53
2018-02-22T06:38:26.401Z,1020.54
2018-02-22T06:39:26.373Z,1020.55
2018-02-22T06:40:26.346Z,1020.54
2018-02-22T06:41:26.323Z,1020.53
2018-02-22T06:42:26.311Z,1020.51
2018-02-22T06:43:26.304Z,1020.50
2018-02-22T06:44:26.278Z,1020.52
2018-02-22T06:45:26.243Z,1020.45
2018-02-22T06:46:26.229Z,1020.55
2018-02-22T06:47:26.197Z,1020.47
2018-02-22T06:48:26.175Z,1020.52
2018-02-22T06:49:26.151Z,1020.55
2018-02-22T06:50:26.148Z,1020.56
2018-02-22T06:51:26.127Z,1020.51
2018-02-22T06:52:26.100Z,1020.55
2018-02-22T06:53:26.066Z,1020.54
2018-02-22T06:54:26.048Z,1020.56
2018-02-22T06:55:26.028Z,1020.58
2018-02-22T06:56:26.021Z,1020.56
2018-02-22T06:57:26.966Z,1020.61
2018-02-22T06:58:25.958Z,1020.60
2018-02-22T06:59:26.457Z,1020.61
2018-02-22T07:00:25.917Z,1020.58
2018-02-22T07:01:25.912Z,1020.61
2018-02-22T07:02:25.871Z,1020.60
2018-02-22T07:03:25.865Z,1020.60
2018-02-22T07:04:25.838Z,1020.59
2018-02-22T07:05:25.810Z,1020.60
2018-02-22T07:06:25.785Z,1020.57
2018-02-22T07:07:25.760Z,1020.56
2018-02-22T07:08:25.744Z,1020.59
2018-02-22T07:09:25.738Z,1020.60
2018-02-22T07:10:25.699Z,1020.59
2018-02-22T07:11:25.680Z,1020.60
2018-02-22T07:12:25.658Z,1020.62
2018-02-22T07:13:25.644Z,1020.60
2018-02-22T07:14:25.634Z,1020.64
2018-02-22T07:15:25.594Z,1020.65
2018-02-22T07:16:25.575Z,1020.63
2018-02-22T07:17:25.552Z,1020.59
2018-02-22T07:18:25.530Z,1020.63
2018-02-22T07:19:25.504Z,1020.66
2018-02-22T07:20:25.500Z,1020.66
2018-02-22T07:21:25.466Z,1020.67
2018-02-22T07:23:25.455Z,1020.69
2018-02-22T07:24:25.399Z,1020.68
2018-02-22T07:25:25.373Z,1020.66
2018-02-22T07:26:25.373Z,1020.68
2018-02-22T07:27:25.351Z,1020.70
2018-02-22T07:28:25.314Z,1020.69
2018-02-22T07:29:25.290Z,1020.71
2018-02-22T07:30:25.272Z,1020.70
2018-02-22T07:31:25.265Z,1020.69
2018-02-22T07:32:25.229Z,1020.72
2018-02-22T07:33:25.205Z,1020.74
2018-02-22T07:34:25.186Z,1020.74
2018-02-22T07:35:25.172Z,1020.70
2018-02-22T07:36:25.156Z,1020.72
2018-02-22T07:37:25.141Z,1020.75
2018-02-22T07:38:25.102Z,1020.72
2018-02-22T07:39:25.090Z,1020.70
2018-02-22T07:40:25.057Z,1020.72
2018-02-22T07:41:25.057Z,1020.73
2018-02-22T07:42:25.032Z,1020.68
2018-02-22T07:43:25.003Z,1020.72
2018-02-22T07:44:24.975Z,1020.67
2018-02-22T07:45:24.960Z,1020.71
2018-02-22T07:46:24.929Z,1020.70
2018-02-22T07:47:24.927Z,1020.67
2018-02-22T07:48:24.902Z,1020.67
2018-02-22T07:49:24.914Z,1020.68
2018-02-22T07:50:24.877Z,1020.67
2018-02-22T07:51:24.902Z,1020.70
2018-02-22T07:52:25.530Z,1020.71
2018-02-22T07:53:24.836Z,1020.67
2018-02-22T07:54:24.826Z,1020.68
2018-02-22T07:55:24.830Z,1020.70
2018-02-22T07:56:24.737Z,1020.68
2018-02-22T07:57:24.732Z,1020.75
2018-02-22T07:58:24.693Z,1020.71
2018-02-22T07:59:24.750Z,1020.70
2018-02-22T08:00:24.681Z,1020.76
2018-02-22T08:01:24.695Z,1020.76
2018-02-22T08:02:24.612Z,1020.79
2018-02-22T08:03:24.585Z,1020.81
2018-02-22T08:04:24.590Z,1020.78
2018-02-22T08:05:24.565Z,1020.80
2018-02-22T08:06:24.549Z,1020.79
2018-02-22T08:07:25.500Z,1020.81
2018-02-22T08:08:24.520Z,1020.82
2018-02-22T08:09:24.462Z,1020.83
2018-02-22T08:10:24.445Z,1020.86
2018-02-22T08:11:24.463Z,1020.85
2018-02-22T08:12:24.448Z,1020.86
2018-02-22T08:13:24.444Z,1020.88
2018-02-22T08:14:24.410Z,1020.86
2018-02-22T08:15:24.358Z,1020.81
2018-02-22T08:16:24.342Z,1020.86
2018-02-22T08:17:24.338Z,1020.89
2018-02-22T08:18:24.337Z,1020.87
2018-02-22T08:19:24.272Z,1020.88
2018-02-22T08:20:25.943Z,1020.88
2018-02-22T08:21:24.231Z,1020.86
2018-02-22T08:22:24.229Z,1020.87
2018-02-22T08:23:24.185Z,1020.85
2018-02-22T08:24:24.997Z,1020.81
2018-02-22T08:25:25.955Z,1020.86
2018-02-22T08:26:24.103Z,1020.87
2018-02-22T08:27:24.100Z,1020.87
2018-02-22T08:28:24.075Z,1020.85
2018-02-22T08:29:24.078Z,1020.91
2018-02-22T08:30:24.048Z,1020.87
2018-02-22T08:31:23.997Z,1020.91
2018-02-22T08:32:24.451Z,1020.88
2018-02-22T08:33:24.038Z,1020.90
2018-02-22T08:34:23.972Z,1020.94
2018-02-22T08:35:23.921Z,1020.85
2018-02-22T08:36:23.899Z,1020.83
2018-02-22T08:37:23.899Z,1020.87
2018-02-22T08:38:23.851Z,1020.85
2018-02-22T08:39:23.868Z,1020.82
2018-02-22T08:40:23.857Z,1020.77
2018-02-22T08:41:23.836Z,1020.79
2018-02-22T08:42:23.828Z,1020.80
2018-02-22T08:43:23.783Z,1020.81
2018-02-22T08:44:23.753Z,1020.77
2018-02-22T08:45:23.743Z,1020.78
2018-02-22T08:46:23.721Z,1020.78
2018-02-22T08:47:23.713Z,1020.80
2018-02-22T08:48:23.678Z,1020.78
2018-02-22T08:49:23.637Z,1020.85
2018-02-22T08:50:23.647Z,1020.85
2018-02-22T08:51:24.448Z,1020.84
2018-02-22T08:52:23.583Z,1020.85
2018-02-22T08:53:23.609Z,1020.83
2018-02-22T08:54:23.529Z,1020.81
2018-02-22T08:55:23.523Z,1020.79
2018-02-22T08:56:26.448Z,1020.81
2018-02-22T08:57:23.473Z,1020.83
2018-02-22T08:58:23.478Z,1020.84
2018-02-22T08:59:23.432Z,1020.85
2018-02-22T09:00:23.422Z,1020.87
2018-02-22T09:01:23.421Z,1020.82
2018-02-22T09:02:24.445Z,1020.81
2018-02-22T09:03:23.433Z,1020.81
2018-02-22T09:04:23.320Z,1020.83
2018-02-22T09:05:23.335Z,1020.80
2018-02-22T09:06:23.292Z,1020.77
2018-02-22T09:07:24.062Z,1020.83
2018-02-22T09:08:23.272Z,1020.79
2018-02-22T09:09:23.223Z,1020.83
2018-02-22T09:10:23.229Z,1020.83
2018-02-22T09:11:23.198Z,1020.79
2018-02-22T09:12:23.183Z,1020.78
2018-02-22T09:13:23.163Z,1020.75
2018-02-22T09:14:23.132Z,1020.77
2018-02-22T09:15:23.152Z,1020.76
2018-02-22T09:16:23.141Z,1020.75
2018-02-22T09:17:23.079Z,1020.77
2018-02-22T09:18:23.084Z,1020.77
2018-02-22T09:19:23.024Z,1020.76
2018-02-22T09:20:23.040Z,1020.76
2018-02-22T09:21:22.996Z,1020.76
2018-02-22T09:22:22.967Z,1020.75
2018-02-22T09:23:22.960Z,1020.76
2018-02-22T09:24:22.962Z,1020.67
2018-02-22T09:25:22.913Z,1020.68
2018-02-22T09:26:22.899Z,1020.69
2018-02-22T09:27:22.886Z,1020.72
2018-02-22T09:28:22.861Z,1020.74
2018-02-22T09:29:22.848Z,1020.71
2018-02-22T09:30:22.833Z,1020.73
2018-02-22T09:31:22.812Z,1020.67
2018-02-22T09:32:24.454Z,1020.70
2018-02-22T09:33:22.755Z,1020.72
2018-02-22T09:34:23.449Z,1020.72
2018-02-22T09:35:22.749Z,1020.70
2018-02-22T09:36:22.701Z,1020.70
2018-02-22T09:37:23.543Z,1020.69
2018-02-22T09:38:22.658Z,1020.70
2018-02-22T09:39:22.639Z,1020.67
2018-02-22T09:40:22.622Z,1020.70
2018-02-22T09:41:23.508Z,1020.67
2018-02-22T09:42:22.555Z,1020.69
2018-02-22T09:43:22.562Z,1020.64
2018-02-22T09:44:22.531Z,1020.67
2018-02-22T09:45:22.512Z,1020.64
2018-02-22T09:46:22.971Z,1020.61
2018-02-22T09:47:22.998Z,1020.64
2018-02-22T09:48:22.430Z,1020.65
2018-02-22T09:49:22.430Z,1020.70
2018-02-22T09:50:22.396Z,1020.66
2018-02-22T09:51:22.369Z,1020.70
2018-02-22T09:52:22.347Z,1020.72
2018-02-22T09:53:22.334Z,1020.68
2018-02-22T09:54:22.315Z,1020.72
2018-02-22T09:55:22.331Z,1020.69
2018-02-22T09:56:22.272Z,1020.72
2018-02-22T09:57:22.250Z,1020.67
2018-02-22T09:58:22.232Z,1020.71
2018-02-22T09:59:22.214Z,1020.67
2018-02-22T10:00:22.221Z,1020.67
2018-02-22T10:01:22.172Z,1020.72
2018-02-22T10:02:22.154Z,1020.69
2018-02-22T10:03:22.136Z,1020.67
2018-02-22T10:04:22.116Z,1020.71
2018-02-22T10:05:22.094Z,1020.68
2018-02-22T10:06:22.092Z,1020.66
2018-02-22T10:07:22.055Z,1020.68
2018-02-22T10:08:22.038Z,1020.64
2018-02-22T10:09:22.015Z,1020.66
2018-02-22T10:10:22.017Z,1020.64
2018-02-22T10:11:22.002Z,1020.67
2018-02-22T10:12:21.959Z,1020.71
2018-02-22T10:13:21.961Z,1020.70
2018-02-22T10:14:21.933Z,1020.68
2018-02-22T10:15:21.903Z,1020.65
2018-02-22T10:16:21.918Z,1020.69
2018-02-22T10:17:21.867Z,1020.70
2018-02-22T10:18:21.850Z,1020.70
2018-02-22T10:19:21.834Z,1020.71
2018-02-22T10:20:21.812Z,1020.72
2018-02-22T10:21:21.820Z,1020.71
2018-02-22T10:22:21.779Z,1020.73
2018-02-22T10:23:21.760Z,1020.71
2018-02-22T10:24:21.737Z,1020.78
2018-02-22T10:25:21.714Z,1020.74
2018-02-22T10:26:21.711Z,1020.66
2018-02-22T10:27:21.733Z,1020.65
2018-02-22T10:28:21.654Z,1020.60
2018-02-22T10:29:21.644Z,1020.59
2018-02-22T10:30:21.644Z,1020.60
2018-02-22T10:31:21.608Z,1020.58
2018-02-22T10:32:21.605Z,1020.59
2018-02-22T10:33:21.603Z,1020.61
2018-02-22T10:34:21.548Z,1020.59
2018-02-22T10:35:21.528Z,1020.62
2018-02-22T10:36:21.511Z,1020.56
2018-02-22T10:37:21.512Z,1020.70
2018-02-22T10:38:21.471Z,1020.71
2018-02-22T10:39:21.465Z,1020.66
2018-02-22T10:40:21.440Z,1020.72
2018-02-22T10:41:21.456Z,1020.67
2018-02-22T10:42:21.413Z,1020.74
2018-02-22T10:43:21.402Z,1020.73
2018-02-22T10:44:21.363Z,1020.67
2018-02-22T10:45:21.346Z,1020.67
2018-02-22T10:46:21.346Z,1020.70
2018-02-22T10:47:21.323Z,1020.67
2018-02-22T10:48:21.310Z,1020.75
2018-02-22T10:49:21.314Z,1020.79
2018-02-22T10:50:21.257Z,1020.80
2018-02-22T10:51:21.239Z,1020.76
2018-02-22T10:52:21.225Z,1020.70
2018-02-22T10:53:21.229Z,1020.71
2018-02-22T10:54:21.218Z,1020.76
2018-02-22T10:55:21.177Z,1020.73
2018-02-22T10:56:21.157Z,1020.73
2018-02-22T10:57:21.153Z,1020.70
2018-02-22T10:58:21.143Z,1020.74
2018-02-22T10:59:21.134Z,1020.71
2018-02-22T11:00:22.956Z,1020.75
2018-02-22T11:01:21.083Z,1020.70
2018-02-22T11:02:21.077Z,1020.71
2018-02-22T11:03:21.067Z,1020.64
2018-02-22T11:04:21.074Z,1020.67
2018-02-22T11:05:21.032Z,1020.71
2018-02-22T11:06:21.013Z,1020.70
2018-02-22T11:07:21.009Z,1020.63
2018-02-22T11:08:20.992Z,1020.67
2018-02-22T11:09:21.006Z,1020.69
2018-02-22T11:10:20.972Z,1020.69
2018-02-22T11:11:20.942Z,1020.72
2018-02-22T11:12:20.936Z,1020.70
2018-02-22T11:13:20.928Z,1020.64
2018-02-22T11:14:20.906Z,1020.67
2018-02-22T11:15:20.937Z,1020.67
2018-02-22T11:16:20.879Z,1020.72
2018-02-22T11:17:20.880Z,1020.68
2018-02-22T11:18:20.859Z,1020.71
2018-02-22T11:19:20.858Z,1020.64
2018-02-22T11:20:20.852Z,1020.69
2018-02-22T11:21:20.852Z,1020.61
2018-02-22T11:22:20.820Z,1020.72
2018-02-22T11:23:21.541Z,1020.70
2018-02-22T11:24:20.791Z,1020.63
2018-02-22T11:25:20.803Z,1020.58
2018-02-22T11:26:20.780Z,1020.62
2018-02-22T11:27:20.765Z,1020.41
2018-02-22T11:28:20.751Z,1020.62
2018-02-22T11:29:20.735Z,1020.60
2018-02-22T11:30:20.741Z,1020.57
2018-02-22T11:31:20.725Z,1020.63
2018-02-22T11:32:20.705Z,1020.61
2018-02-22T11:33:20.738Z,1020.59
2018-02-22T11:34:21.512Z,1020.66
2018-02-22T11:35:23.466Z,1020.58
2018-02-22T11:36:20.669Z,1020.37
2018-02-22T11:37:20.658Z,1020.53
2018-02-22T11:38:20.623Z,1020.49
2018-02-22T11:39:20.619Z,1020.47
2018-02-22T11:40:20.610Z,1020.55
2018-02-22T11:41:20.597Z,1020.53
2018-02-22T11:42:20.618Z,1020.53
2018-02-22T11:43:20.579Z,1020.51
2018-02-22T11:44:20.557Z,1020.50
2018-02-22T11:45:20.559Z,1020.49
2018-02-22T11:46:20.552Z,1020.41
2018-02-22T11:47:20.533Z,1020.47
2018-02-22T11:48:20.541Z,1020.41
2018-02-22T11:49:20.514Z,1020.29
2018-02-22T11:50:20.521Z,1020.38
2018-02-22T11:51:20.507Z,1020.39
2018-02-22T11:52:20.463Z,1020.42
2018-02-22T11:53:21.011Z,1020.39
2018-02-22T11:54:20.446Z,1020.34
2018-02-22T11:55:20.428Z,1020.36
2018-02-22T11:56:20.437Z,1020.38
2018-02-22T11:57:20.409Z,1020.22
2018-02-22T11:58:20.395Z,1020.28
2018-02-22T11:59:20.384Z,1020.25
2018-02-22T12:00:20.373Z,1020.33
2018-02-22T12:01:20.377Z,1020.22
2018-02-22T12:02:20.353Z,1020.30
2018-02-22T12:03:20.342Z,1020.29
2018-02-22T12:04:20.975Z,1020.31
2018-02-22T12:05:20.333Z,1020.31
2018-02-22T12:06:20.347Z,1020.26